Bookmark and Share
Track history (hours):
 

Kristina

Last reported at 2013-Jul-13 06:23 UTC. Time now 2014-Apr-24 09:28 UTC.
Position N 57°23' E 018°53'.
Warning: this ship's position is months out of date.

Length 11 m; draft 2 m.

Type: Fishing. MMSI: 265630900.

NotesDate/timePositionNaut miles runAvg speedWind from/ knotsBaromVisibWave heightAir tempDewpointWater temp
2013-Jul-13 06:23N 57°23' E 018°53'0 0.0
2013-Jul-12 23:28N 57°23' E 018°53'0 0.0
2013-Jul-12 13:11N 57°23' E 018°53'  
2013-Jul-10 06:16N 57°25' E 018°55'0 0.0
2013-Jul-09 01:28N 57°25' E 018°55'1 0.1
2013-Jul-08 08:31N 57°24' E 018°56'2 0.1
2013-Jul-07 19:32N 57°23' E 018°53'0 0.0
2013-Jul-07 16:32N 57°23' E 018°53'0 0.0
2013-Jul-07 04:13N 57°23' E 018°53'0 0.0
2013-Jul-07 03:33N 57°23' E 018°53'0 0.0
2013-Jul-07 02:19N 57°23' E 018°53'189 5.4
2013-Jul-05 15:10N 55°29' E 014°20'2 2.5
2013-Jul-05 14:33N 55°28' E 014°17'0 0.1
2013-Jul-05 13:32N 55°29' E 014°17'1 1.3
2013-Jul-05 12:33N 55°28' E 014°19'7 7.1
2013-Jul-05 11:33N 55°24' E 014°30'7 7.0
2013-Jul-05 10:32N 55°21' E 014°41'1 1.2
2013-Jul-05 09:32N 55°22' E 014°40'2 2.3
2013-Jul-05 08:33N 55°24' E 014°38'1 0.6
2013-Jul-05 07:33N 55°24' E 014°39'1 0.6
2013-Jul-05 06:33N 55°24' E 014°40'3 2.8
2013-Jul-05 05:34N 55°25' E 014°35'8 7.8
2013-Jul-05 04:32N 55°28' E 014°22'3 2.9
2013-Jul-05 03:34N 55°29' E 014°17'0 0.0
2013-Jul-05 02:33N 55°29' E 014°17'0 0.0
2013-Jul-05 01:33N 55°29' E 014°17'0 0.0
2013-Jul-05 00:33N 55°29' E 014°17'0 0.0
2013-Jul-04 23:33N 55°29' E 014°17'0 0.0
2013-Jul-04 22:33N 55°29' E 014°17'0 0.0
2013-Jul-04 21:33N 55°29' E 014°17'0 0.0
2013-Jul-04 20:33N 55°29' E 014°17'0 0.0
2013-Jul-04 19:33N 55°29' E 014°17'0 0.0
2013-Jul-04 18:33N 55°29' E 014°17'0 0.0
2013-Jul-04 17:34N 55°29' E 014°17'0 0.0
2013-Jul-04 16:26N 55°29' E 014°17'0 0.0
2013-Jul-04 15:33N 55°29' E 014°17'0 0.0
2013-Jul-04 14:32N 55°29' E 014°17'3 3.4
2013-Jul-04 13:33N 55°27' E 014°22'8 7.6
2013-Jul-04 12:33N 55°23' E 014°34'5 4.5
2013-Jul-04 11:31N 55°21' E 014°41'1 0.9
2013-Jul-04 10:33N 55°21' E 014°40'2 2.1
2013-Jul-04 09:33N 55°23' E 014°39'1 0.6
2013-Jul-04 08:27N 55°24' E 014°39'0 0.2
2013-Jul-04 07:31N 55°24' E 014°39'0 0.2
2013-Jul-04 06:23N 55°24' E 014°40'1 0.6
2013-Jul-04 05:33N 55°24' E 014°39'1 0.6
2013-Jul-04 04:33N 55°24' E 014°39'5 5.3
2013-Jul-04 03:33N 55°26' E 014°30'7 6.7
2013-Jul-04 02:33N 55°28' E 014°19'1 1.1
2013-Jul-04 01:34N 55°29' E 014°17'0 0.0
2013-Jul-04 00:32N 55°29' E 014°17'0 0.0
2013-Jul-03 23:33N 55°29' E 014°17'0 0.0
2013-Jul-03 22:33N 55°29' E 014°17'0 0.0
2013-Jul-03 21:33N 55°29' E 014°17'0 0.0
2013-Jul-03 20:33N 55°29' E 014°17'0 0.0
2013-Jul-03 19:33N 55°29' E 014°17'0 0.0
2013-Jul-03 18:33N 55°29' E 014°17'0 0.0
2013-Jul-03 17:33N 55°29' E 014°17'0 0.0
2013-Jul-03 16:30N 55°29' E 014°17'0 0.0
2013-Jul-03 15:20N 55°29' E 014°17'0 0.0
2013-Jul-03 14:33N 55°29' E 014°17'0 0.0
2013-Jul-03 13:33N 55°29' E 014°17'0 0.0
2013-Jul-03 12:33N 55°29' E 014°17'0 0.0
2013-Jul-03 11:33N 55°29' E 014°17'0 0.0
2013-Jul-03 10:33N 55°29' E 014°17'0 0.0
2013-Jul-03 09:22N 55°29' E 014°17'0 0.0
2013-Jul-03 08:33N 55°29' E 014°17'0 0.0
2013-Jul-03 07:33N 55°29' E 014°17'0 0.0
2013-Jul-03 06:33N 55°29' E 014°17'  

Dump ship's entire track history

sailing weather and tide predictions

Kristina — SFB8756 — position and weather